createdAt,value
2018-11-03T20:20:20.563Z,6.47
2018-11-03T20:22:51.249Z,7.47
2018-11-03T20:25:21.831Z,7.10
2018-11-03T20:27:52.783Z,7.40
2018-11-03T20:30:23.193Z,7.10
2018-11-03T20:32:54.319Z,7.20
2018-11-03T20:35:24.808Z,7.57
2018-11-03T20:37:55.483Z,6.50
2018-11-03T20:40:25.768Z,7.30
2018-11-03T20:42:55.944Z,7.23
2018-11-03T20:45:26.633Z,7.03
2018-11-03T20:47:56.774Z,7.57
2018-11-03T20:50:27.209Z,6.30
2018-11-03T20:52:57.324Z,6.20
2018-11-03T20:55:28.143Z,6.47
2018-11-03T20:58:01.345Z,6.27
2018-11-03T21:00:31.813Z,5.70
2018-11-03T21:03:02.013Z,6.53
2018-11-03T21:05:33.073Z,6.57
2018-11-03T21:08:03.202Z,6.33
2018-11-03T21:10:33.449Z,5.90
2018-11-03T21:13:04.418Z,6.10
2018-11-03T21:15:35.126Z,6.47
2018-11-03T21:18:05.523Z,6.00
2018-11-03T21:20:35.903Z,5.43
2018-11-03T21:26:10.218Z,5.40
2018-11-03T21:28:40.544Z,5.70
2018-11-03T21:31:11.456Z,6.23
2018-11-03T21:33:41.553Z,5.93
2018-11-03T21:36:11.738Z,5.80
2018-11-03T21:38:42.459Z,6.30
2018-11-03T21:41:12.777Z,6.60
2018-11-03T21:43:44.162Z,6.43
2018-11-03T21:46:16.163Z,6.50
2018-11-03T21:48:46.663Z,6.03
2018-11-03T21:51:17.043Z,5.80
2018-11-03T21:53:47.308Z,6.40
2018-11-03T21:56:17.427Z,6.37
2018-11-03T21:58:47.778Z,6.40
2018-11-03T22:01:18.078Z,6.23
2018-11-03T22:03:48.203Z,6.77
2018-11-03T22:06:18.541Z,6.60
2018-11-03T22:08:48.724Z,6.47
2018-11-03T22:11:19.179Z,6.57
2018-11-03T22:13:49.404Z,6.53
2018-11-03T22:16:20.463Z,6.90
2018-11-03T22:18:51.163Z,6.07
2018-11-03T22:21:21.693Z,7.53
2018-11-03T22:23:51.928Z,6.23
2018-11-03T22:26:23.603Z,5.77
2018-11-03T22:28:53.760Z,6.00
2018-11-03T22:31:24.955Z,6.20
2018-11-03T22:33:55.173Z,6.13
2018-11-03T22:36:25.448Z,5.77
2018-11-03T22:38:55.883Z,5.67
2018-11-03T22:41:26.338Z,5.93
2018-11-03T22:43:56.819Z,6.23
2018-11-03T22:46:27.826Z,5.80
2018-11-03T22:48:58.538Z,5.90
2018-11-03T22:51:28.994Z,5.83
2018-11-03T22:53:59.363Z,6.40
2018-11-03T22:56:29.516Z,5.77
2018-11-03T22:58:59.952Z,6.13
2018-11-03T23:01:30.158Z,6.87
2018-11-03T23:04:00.428Z,6.40
2018-11-03T23:06:30.942Z,6.60
2018-11-03T23:09:01.419Z,5.23
2018-11-03T23:11:31.573Z,5.50
2018-11-03T23:14:02.069Z,6.17
2018-11-03T23:16:32.488Z,6.07
2018-11-03T23:19:02.908Z,5.93
2018-11-03T23:21:33.243Z,6.70
2018-11-03T23:24:03.548Z,5.50
2018-11-03T23:26:33.952Z,5.73
2018-11-03T23:29:04.493Z,5.40
2018-11-03T23:31:34.592Z,5.70
2018-11-03T23:34:04.913Z,5.70
2018-11-03T23:36:35.193Z,5.47
2018-11-03T23:39:08.160Z,5.67
2018-11-03T23:41:38.488Z,5.63
2018-11-03T23:44:09.333Z,5.40
2018-11-03T23:46:39.774Z,5.33
2018-11-03T23:49:09.995Z,5.70
2018-11-03T23:51:41.093Z,5.53
2018-11-03T23:54:11.298Z,5.40
2018-11-03T23:56:41.509Z,5.80
2018-11-03T23:59:11.939Z,5.47
